Terminal Aerodrome Forecast
Issued by NWS Huntsville, AL

Current Version | Previous Version | Text Only | Print | Product List | Glossary On
Versions: 1 2 3 4 5 6 7 8 9 10 11 12 13
000
FTUS44 KHUN 262326
TAFHSV
TAF
KHSV 262326Z 2700/2724 15007KT P6SM BKN250
     FM270600 10005KT P6SM BKN090
     FM271600 13010KT P6SM -RA OVC050=

USA.gov is the U.S. government's official web portal to all federal, state and local government web resources and services.